Time;durP1;ratioP1;P1;durP2;ratioP2;P2;SDS_P1;SDS_P2;PMS_P1;PMS_P2;Temp;Humidity;BMP_temperature;BMP_pressure;BME280_temperature;BME280_humidity;BME280_pressure;Samples;Min_cycle;Max_cycle;Signal;HPM_P1;HPM_P2
2022/04/14 00:00:53;;;;;;;42.90;32.42;;;;;;;10.59;100.00;101911.25;5075422;28;20032;-56
2022/04/14 00:03:19;;;;;;;43.17;32.17;;;;;;;10.54;100.00;101914.06;5094049;28;20016;-57
2022/04/14 00:05:45;;;;;;;40.35;31.05;;;;;;;10.50;100.00;101912.94;5093594;28;20020;-56
2022/04/14 00:08:10;;;;;;;41.97;33.25;;;;;;;10.48;100.00;101909.66;5093244;28;20435;-55
2022/04/14 00:10:35;;;;;;;40.65;31.27;;;;;;;10.44;100.00;101904.66;5092989;28;20028;-55
2022/04/14 00:13:01;;;;;;;42.58;32.00;;;;;;;10.44;100.00;101903.81;5074687;28;20172;-55
2022/04/14 00:15:27;;;;;;;41.45;31.42;;;;;;;10.44;100.00;101904.66;5093259;28;20472;-57
2022/04/14 00:17:52;;;;;;;41.08;30.30;;;;;;;10.44;100.00;101896.38;5092899;28;20029;-56
2022/04/14 00:20:17;;;;;;;42.15;31.25;;;;;;;10.43;100.00;101896.66;5092876;28;20023;-55
2022/04/14 00:22:43;;;;;;;40.75;31.88;;;;;;;10.40;100.00;101891.69;5074262;28;20036;-55
2022/04/14 00:25:10;;;;;;;41.90;31.63;;;;;;;10.36;100.00;101896.91;5091470;28;20488;-54
2022/04/14 00:27:36;;;;;;;40.92;31.83;;;;;;;10.40;100.00;101895.25;5091549;28;20089;-55
2022/04/14 00:30:01;;;;;;;41.25;31.73;;;;;;;10.40;100.00;101894.44;5092264;28;20024;-58
2022/04/14 00:32:27;;;;;;;43.85;32.60;;;;;;;10.40;100.00;101894.44;5093047;28;20020;-58
2022/04/14 00:34:52;;;;;;;41.28;31.05;;;;;;;10.40;100.00;101884.19;5092732;28;20017;-55
2022/04/14 00:37:17;;;;;;;40.50;31.50;;;;;;;10.41;100.00;101885.84;5092862;28;20020;-58
2022/04/14 00:39:44;;;;;;;40.50;31.40;;;;;;;10.40;100.00;101880.59;5093352;28;20035;-57
2022/04/14 00:42:10;;;;;;;41.17;30.83;;;;;;;10.38;100.00;101891.97;5092873;28;20024;-57
2022/04/14 00:44:36;;;;;;;42.60;32.17;;;;;;;10.39;100.00;101888.06;5092296;28;20055;-58
2022/04/14 00:47:01;;;;;;;40.78;31.83;;;;;;;10.36;100.00;101882.22;5092645;28;20437;-56
2022/04/14 00:49:27;;;;;;;41.10;31.25;;;;;;;10.35;100.00;101888.88;5092350;28;20028;-56
2022/04/14 00:51:52;;;;;;;40.55;31.23;;;;;;;10.37;100.00;101886.66;5072594;28;20020;-56
2022/04/14 00:54:17;;;;;;;41.10;31.90;;;;;;;10.34;100.00;101888.06;5092132;28;20020;-58
2022/04/14 00:56:42;;;;;;;42.63;33.25;;;;;;;10.36;100.00;101894.13;5092094;28;20031;-56
2022/04/14 00:59:08;;;;;;;42.83;34.03;;;;;;;10.36;100.00;101899.66;5092366;28;20305;-57
2022/04/14 01:01:33;;;;;;;45.72;34.88;;;;;;;10.36;100.00;101885.84;5091489;28;20039;-56
2022/04/14 01:03:59;;;;;;;48.75;36.35;;;;;;;10.38;100.00;101883.66;5091544;28;20098;-56
2022/04/14 01:06:25;;;;;;;47.00;36.60;;;;;;;10.41;100.00;101890.56;5092000;28;20031;-56
2022/04/14 01:11:36;;;;;;;46.70;37.20;;;;;;;10.43;100.00;101888.34;5092019;28;20117;-57
2022/04/14 01:14:01;;;;;;;47.72;36.78;;;;;;;10.43;100.00;101889.19;5092332;28;20024;-57
2022/04/14 01:16:26;;;;;;;47.13;36.90;;;;;;;10.43;100.00;101886.41;5091340;28;20032;-56
2022/04/14 01:18:52;;;;;;;50.40;38.40;;;;;;;10.43;100.00;101885.59;5091438;28;20060;-56
2022/04/14 01:21:17;;;;;;;47.63;37.35;;;;;;;10.43;100.00;101880.88;5091848;28;20032;-55
2022/04/14 01:23:44;;;;;;;48.33;38.00;;;;;;;10.39;100.00;101878.94;5073685;28;20428;-56
2022/04/14 01:26:13;;;;;;;49.05;38.10;;;;;;;10.38;100.00;101888.34;5091678;28;20044;-56
2022/04/14 01:28:38;;;;;;;53.55;37.95;;;;;;;10.37;100.00;101882.00;5091701;28;20024;-57
2022/04/14 01:31:03;;;;;;;50.65;37.72;;;;;;;10.36;100.00;101888.59;5091831;28;20383;-56
2022/04/14 01:33:29;;;;;;;52.15;37.85;;;;;;;10.35;100.00;101881.41;5073484;28;20072;-55
2022/04/14 01:35:54;;;;;;;51.65;38.72;;;;;;;10.34;100.00;101890.81;5090892;28;20096;-56
2022/04/14 01:38:19;;;;;;;50.50;39.15;;;;;;;10.32;100.00;101886.69;5091841;28;20024;-57
2022/04/14 01:40:44;;;;;;;48.33;38.47;;;;;;;10.30;100.00;101887.78;5091528;28;20028;-55
2022/04/14 01:43:10;;;;;;;49.83;37.78;;;;;;;10.28;100.00;101891.94;5091811;28;20024;-57
2022/04/14 01:45:35;;;;;;;49.85;36.67;;;;;;;10.25;100.00;101881.44;5091918;28;20023;-57
2022/04/14 01:48:00;;;;;;;49.95;39.15;;;;;;;10.19;100.00;101883.38;5091839;28;20036;-55
2022/04/14 01:50:26;;;;;;;50.33;39.58;;;;;;;10.17;100.00;101882.81;5090586;28;20081;-53
2022/04/14 01:52:51;;;;;;;51.17;38.38;;;;;;;10.15;100.00;101885.84;5073099;28;20479;-56
2022/04/14 01:55:16;;;;;;;51.05;38.97;;;;;;;10.15;100.00;101883.09;5091649;28;20058;-57
2022/04/14 01:57:42;;;;;;;49.60;38.22;;;;;;;10.12;100.00;101886.41;5094668;28;20539;-57
2022/04/14 02:00:08;;;;;;;53.15;39.67;;;;;;;10.13;100.00;101890.03;5095953;28;20472;-57
2022/04/14 02:02:34;;;;;;;50.13;38.80;;;;;;;10.12;100.00;101891.13;5095693;28;20065;-56
2022/04/14 02:04:59;;;;;;;50.08;38.50;;;;;;;10.13;100.00;101893.59;5095800;28;20149;-56
2022/04/14 02:07:25;;;;;;;53.22;39.40;;;;;;;10.11;100.00;101893.03;5095176;28;20123;-56
2022/04/14 02:09:50;;;;;;;54.13;40.35;;;;;;;10.12;100.00;101891.13;5095325;28;20031;-57
2022/04/14 02:12:15;;;;;;;51.92;38.50;;;;;;;10.09;100.00;101891.66;5095745;28;20020;-57
2022/04/14 02:14:41;;;;;;;52.38;39.80;;;;;;;10.11;100.00;101897.75;5095727;28;20024;-57
2022/04/14 02:17:06;;;;;;;51.97;39.90;;;;;;;10.07;100.00;101891.09;5095315;28;20027;-57
2022/04/14 02:19:32;;;;;;;50.17;39.65;;;;;;;10.07;100.00;101902.16;5095624;28;20032;-57
2022/04/14 02:22:00;;;;;;;53.15;40.03;;;;;;;10.07;100.00;101900.25;5094611;28;20024;-56
2022/04/14 02:24:26;;;;;;;52.50;38.75;;;;;;;10.11;100.00;101903.28;5094830;28;20044;-58
2022/04/14 02:26:55;;;;;;;52.47;39.33;;;;;;;10.11;100.00;101897.75;5124328;22;20418;-51
2022/04/14 02:29:20;;;;;;;49.50;37.67;;;;;;;10.12;100.00;101903.00;5114913;28;20028;-49
2022/04/14 02:31:46;;;;;;;53.55;39.58;;;;;;;10.12;100.00;101908.53;5116205;28;20056;-50
2022/04/14 02:34:11;;;;;;;50.47;37.75;;;;;;;10.12;100.00;101900.22;5115728;28;20074;-52
2022/04/14 02:36:36;;;;;;;50.35;37.55;;;;;;;10.10;100.00;101904.38;5116098;28;20391;-53
2022/04/14 02:39:02;;;;;;;50.67;38.55;;;;;;;10.10;100.00;101907.16;5115387;28;20106;-52
2022/04/14 02:41:27;;;;;;;52.70;38.75;;;;;;;10.03;100.00;101915.72;5115576;28;20024;-53
2022/04/14 02:43:53;;;;;;;51.75;38.65;;;;;;;10.02;100.00;101913.25;5115382;28;20084;-52
2022/04/14 02:46:18;;;;;;;53.78;38.63;;;;;;;9.96;100.00;101912.41;5115884;28;20496;-53
2022/04/14 02:48:43;;;;;;;49.78;38.38;;;;;;;9.94;100.00;101909.06;5115515;28;20476;-54
2022/04/14 02:51:09;;;;;;;52.88;38.95;;;;;;;9.89;100.00;101917.38;5115340;28;20019;-52
2022/04/14 02:53:34;;;;;;;51.30;38.40;;;;;;;9.86;100.00;101913.25;5115847;28;20035;-54
2022/04/14 02:55:59;;;;;;;52.92;39.00;;;;;;;9.81;100.00;101907.69;5116059;28;20023;-52
2022/04/14 02:58:25;;;;;;;53.47;39.03;;;;;;;9.79;100.00;101910.75;5115579;28;20425;-53
2022/04/14 03:00:50;;;;;;;51.35;38.17;;;;;;;9.79;100.00;101898.84;5115648;28;20027;-53
2022/04/14 03:03:16;;;;;;;52.13;39.60;;;;;;;9.76;100.00;101905.75;5115638;28;20030;-51
2022/04/14 03:05:42;;;;;;;49.10;36.95;;;;;;;9.72;100.00;101901.06;5115739;28;20047;-52
2022/04/14 03:08:07;;;;;;;49.75;37.85;;;;;;;9.70;100.00;101912.38;5114511;28;20031;-52
2022/04/14 03:10:32;;;;;;;49.10;36.67;;;;;;;9.66;100.00;101906.59;5114478;28;20028;-53
2022/04/14 03:12:57;;;;;;;50.85;39.17;;;;;;;9.63;100.00;101898.00;5114581;28;20063;-52
2022/04/14 03:15:23;;;;;;;49.65;36.65;;;;;;;9.60;100.00;101906.84;5115210;28;20511;-53
2022/04/14 03:17:50;;;;;;;48.88;36.35;;;;;;;9.52;100.00;101906.28;5096255;28;20563;-52
2022/04/14 03:20:15;;;;;;;50.10;37.60;;;;;;;9.50;100.00;101900.19;5114279;28;20515;-51
2022/04/14 03:22:41;;;;;;;52.05;37.15;;;;;;;9.45;100.00;101907.63;5114376;28;20055;-53
2022/04/14 03:25:08;;;;;;;52.42;37.63;;;;;;;9.41;100.00;101910.13;5114387;28;20062;-53
2022/04/14 03:27:34;;;;;;;50.40;37.88;;;;;;;9.37;100.00;101911.75;5114587;28;20047;-53
2022/04/14 03:29:59;;;;;;;51.25;37.65;;;;;;;9.34;100.00;101909.56;5115269;28;20104;-52
2022/04/14 03:32:25;;;;;;;51.70;36.22;;;;;;;9.26;100.00;101912.84;5114758;28;20027;-53
2022/04/14 03:34:53;;;;;;;52.20;36.92;;;;;;;9.23;100.00;101914.19;5114538;28;20034;-51
2022/04/14 03:37:19;;;;;;;49.83;36.85;;;;;;;9.22;100.00;101912.53;5115201;28;20027;-51
2022/04/14 03:39:44;;;;;;;53.05;36.97;;;;;;;9.15;100.00;101910.03;5114601;28;20080;-52
2022/04/14 03:42:09;;;;;;;57.78;38.67;;;;;;;9.12;100.00;101912.47;5114798;28;20059;-52
2022/04/14 03:44:35;;;;;;;65.63;39.50;;;;;;;9.07;100.00;101906.97;5114763;28;20051;-51
2022/04/14 03:47:00;;;;;;;84.43;39.70;;;;;;;9.03;100.00;101907.50;5114534;28;20030;-53
2022/04/14 03:49:25;;;;;;;74.03;40.17;;;;;;;8.99;100.00;101909.16;5114824;28;20042;-54
2022/04/14 03:51:54;;;;;;;68.20;41.25;;;;;;;8.95;100.00;101915.47;5114733;28;20452;-54
2022/04/14 03:54:19;;;;;;;77.68;42.85;;;;;;;8.89;100.00;101909.91;5114371;28;20073;-55
2022/04/14 03:56:46;;;;;;;73.72;41.60;;;;;;;8.88;100.00;101913.75;5114923;28;20032;-53
2022/04/14 03:59:13;;;;;;;73.15;41.88;;;;;;;8.89;100.00;101912.66;5115119;28;20107;-53
2022/04/14 04:01:38;;;;;;;63.58;39.45;;;;;;;8.86;100.00;101913.22;5114832;28;20535;-51
2022/04/14 04:04:04;;;;;;;77.30;39.63;;;;;;;8.88;100.00;101915.72;5114549;28;20051;-49
2022/04/14 04:06:29;;;;;;;69.25;40.60;;;;;;;8.87;100.00;101911.28;5114828;28;20028;-52
2022/04/14 04:08:54;;;;;;;63.95;39.38;;;;;;;8.85;100.00;101916.22;5114637;28;20039;-53
2022/04/14 04:11:20;;;;;;;64.15;40.05;;;;;;;8.86;100.00;101917.91;5114464;28;20027;-53
2022/04/14 04:13:45;;;;;;;64.35;40.83;;;;;;;8.88;100.00;101915.72;5114250;28;20432;-50
2022/04/14 04:16:11;;;;;;;73.43;42.83;;;;;;;8.89;100.00;101912.66;5114192;28;20028;-53
2022/04/14 04:18:36;;;;;;;81.40;43.63;;;;;;;8.90;100.00;101917.09;5114204;28;20027;-52
2022/04/14 04:21:01;;;;;;;79.50;44.30;;;;;;;8.88;100.00;101918.47;5113176;28;20035;-53
2022/04/14 04:23:27;;;;;;;86.65;45.78;;;;;;;8.87;100.00;101920.41;5113394;28;20448;-54
2022/04/14 04:25:52;;;;;;;77.63;40.72;;;;;;;8.85;100.00;101919.84;5113569;28;20051;-53
2022/04/14 04:28:17;;;;;;;83.80;39.85;;;;;;;8.83;100.00;101926.75;5113844;28;20038;-52
2022/04/14 04:30:43;;;;;;;91.90;39.97;;;;;;;8.82;100.00;101933.34;5114319;28;20421;-53
2022/04/14 04:33:08;;;;;;;91.45;41.03;;;;;;;8.80;100.00;101927.25;5113886;28;20106;-53
2022/04/14 04:35:33;;;;;;;87.47;38.22;;;;;;;8.80;100.00;101930.03;5114326;28;20078;-53
2022/04/14 04:37:58;;;;;;;69.35;36.88;;;;;;;8.79;100.00;101933.88;5113348;28;20028;-52
2022/04/14 04:40:24;;;;;;;95.45;39.15;;;;;;;8.76;100.00;101935.25;5113820;28;20449;-53
2022/04/14 04:42:49;;;;;;;77.65;38.38;;;;;;;8.72;100.00;101946.00;5113974;28;20098;-53
2022/04/14 04:45:14;;;;;;;79.38;37.75;;;;;;;8.71;100.00;101947.09;5113659;28;20032;-54
2022/04/14 04:47:39;;;;;;;67.53;35.45;;;;;;;8.71;100.00;101944.31;5113760;28;20429;-53
2022/04/14 04:50:07;;;;;;;71.88;36.88;;;;;;;8.68;100.00;101944.84;5113753;28;20042;-52
2022/04/14 04:52:33;;;;;;;82.90;34.50;;;;;;;8.66;100.00;101946.22;5113490;28;20023;-51
2022/04/14 04:54:58;;;;;;;78.95;35.00;;;;;;;8.65;100.00;101948.13;5113396;28;20035;-51
2022/04/14 04:57:24;;;;;;;69.65;33.58;;;;;;;8.65;100.00;101955.59;5113542;28;20100;-53
2022/04/14 04:59:49;;;;;;;74.30;33.85;;;;;;;8.63;100.00;101955.84;5113771;28;20042;-52
2022/04/14 05:02:14;;;;;;;80.03;33.25;;;;;;;8.60;100.00;101964.66;5113975;28;20156;-50
2022/04/14 05:04:39;;;;;;;87.00;35.03;;;;;;;8.56;100.00;101967.13;5113131;28;20039;-50
2022/04/14 05:07:05;;;;;;;104.55;33.95;;;;;;;8.56;100.00;101967.13;5113664;28;20027;-53
2022/04/14 05:09:30;;;;;;;96.20;35.75;;;;;;;8.57;100.00;101962.41;5113505;28;20038;-53
2022/04/14 05:11:56;;;;;;;106.60;35.50;;;;;;;8.57;100.00;101962.41;5113709;28;20143;-53
2022/04/14 05:14:21;;;;;;;96.88;35.45;;;;;;;8.57;100.00;101968.78;5113711;28;20472;-51
2022/04/14 05:16:46;;;;;;;102.53;34.95;;;;;;;8.56;100.00;101964.34;5112620;28;20529;-53
2022/04/14 05:19:11;;;;;;;99.50;35.60;;;;;;;8.56;100.00;101971.78;5113089;28;20039;-50
2022/04/14 05:21:37;;;;;;;87.88;32.97;;;;;;;8.58;100.00;101973.22;5113163;28;20043;-52
2022/04/14 05:24:03;;;;;;;92.85;34.97;;;;;;;8.56;100.00;101972.63;5112743;28;20020;-53
2022/04/14 05:26:28;;;;;;;67.47;34.13;;;;;;;8.55;100.00;101961.84;5112568;28;20052;-52
2022/04/14 05:28:53;;;;;;;64.80;32.47;;;;;;;8.53;100.00;101964.06;5112052;28;20472;-52
2022/04/14 05:31:20;;;;;;;54.40;32.28;;;;;;;8.49;100.00;101965.66;5112412;28;20015;-52
2022/04/14 05:33:46;;;;;;;55.03;31.80;;;;;;;8.49;100.00;101976.72;5112386;28;20031;-52
2022/04/14 05:36:11;;;;;;;57.25;31.67;;;;;;;8.48;100.00;101981.41;5112665;28;20091;-52
2022/04/14 05:38:36;;;;;;;53.92;31.85;;;;;;;8.50;100.00;101979.19;5112919;28;20035;-52
2022/04/14 05:41:02;;;;;;;51.70;32.38;;;;;;;8.51;100.00;101980.84;5112929;28;20399;-53
2022/04/14 05:43:30;;;;;;;58.83;32.33;;;;;;;8.57;100.00;101992.75;5112829;28;20027;-53
2022/04/14 05:45:55;;;;;;;50.42;31.65;;;;;;;8.60;100.00;101989.47;5113145;28;20023;-53
2022/04/14 05:48:21;;;;;;;52.90;31.98;;;;;;;8.64;100.00;101992.53;5112801;28;20155;-53
2022/04/14 05:50:49;;;;;;;52.67;31.88;;;;;;;8.69;100.00;101998.09;5113075;28;20472;-53
2022/04/14 05:53:16;;;;;;;49.92;30.77;;;;;;;8.74;100.00;102000.88;5113311;28;20023;-53
2022/04/14 05:55:44;;;;;;;50.58;31.58;;;;;;;8.80;100.00;102001.75;5113273;28;20032;-52
2022/04/14 05:58:09;;;;;;;48.63;31.30;;;;;;;8.84;100.00;101998.19;5113418;28;20027;-53
2022/04/14 06:00:36;;;;;;;45.22;31.40;;;;;;;8.88;100.00;102002.06;5112716;28;20364;-51
2022/04/14 06:03:02;;;;;;;41.40;31.95;;;;;;;8.98;100.00;102003.22;5111581;28;20098;-52
2022/04/14 06:05:28;;;;;;;42.67;31.90;;;;;;;9.01;100.00;101995.28;5110831;28;20104;-51
2022/04/14 06:07:54;;;;;;;42.55;31.55;;;;;;;9.06;100.00;102002.75;5112848;28;20026;-54
2022/04/14 06:10:20;;;;;;;41.58;31.63;;;;;;;9.08;100.00;102006.06;5094825;28;20031;-54
2022/04/14 06:12:46;;;;;;;41.05;32.10;;;;;;;9.12;100.00;102007.19;5112301;28;20026;-53
2022/04/14 06:15:12;;;;;;;40.55;32.33;;;;;;;9.17;100.00;101996.16;5117474;28;20454;-52
2022/04/14 06:17:37;;;;;;;40.53;30.92;;;;;;;9.18;100.00;101997.00;5131159;28;20042;-53
2022/04/14 06:20:03;;;;;;;42.40;32.28;;;;;;;9.22;100.00;101995.34;5129309;28;20028;-54
2022/04/14 06:22:29;;;;;;;42.65;32.65;;;;;;;9.25;100.00;101997.59;5130609;28;20102;-53
2022/04/14 06:24:58;;;;;;;41.60;31.75;;;;;;;9.30;100.00;101992.09;5130677;28;20496;-53
2022/04/14 06:27:23;;;;;;;41.97;32.13;;;;;;;9.40;100.00;101990.50;5111922;28;20107;-53
2022/04/14 06:29:48;;;;;;;41.42;31.88;;;;;;;9.52;100.00;102002.13;5122007;28;20482;-53
2022/04/14 06:32:13;;;;;;;39.13;30.55;;;;;;;9.58;100.00;101997.44;5113825;28;20070;-50
2022/04/14 06:34:39;;;;;;;41.22;30.90;;;;;;;9.66;100.00;101999.69;5097493;28;20449;-53
2022/04/14 06:37:04;;;;;;;38.08;29.17;;;;;;;9.75;100.00;102000.81;5130785;28;20027;-53
2022/04/14 06:39:29;;;;;;;40.17;31.33;;;;;;;9.83;100.00;102003.03;5124471;28;20495;-52
2022/04/14 06:41:55;;;;;;;39.25;29.95;;;;;;;9.94;100.00;102012.19;5119177;28;20016;-53
2022/04/14 06:44:20;;;;;;;38.30;28.95;;;;;;;10.04;100.00;102005.84;5113857;27;20039;-53
2022/04/14 06:46:46;;;;;;;35.53;27.42;;;;;;;10.13;100.00;101998.69;5124058;27;20019;-53
2022/04/14 06:49:11;;;;;;;35.53;26.17;;;;;;;10.26;100.00;102007.53;5134321;27;20384;-52
2022/04/14 06:51:36;;;;;;;34.65;26.13;;;;;;;10.37;100.00;102009.25;5128879;27;20031;-53
2022/04/14 06:54:02;;;;;;;33.50;25.38;;;;;;;10.45;100.00;102005.06;5122684;27;20027;-54
2022/04/14 06:56:27;;;;;;;33.25;25.00;;;;;;;10.53;100.00;102004.50;5132778;27;20034;-53
2022/04/14 06:58:52;;;;;;;35.75;25.65;;;;;;;10.60;99.83;101998.72;5121344;27;20023;-53
2022/04/14 07:01:17;;;;;;;33.10;23.73;;;;;;;10.70;99.84;101997.88;5132322;27;20043;-53
2022/04/14 07:03:43;;;;;;;33.60;24.42;;;;;;;10.75;98.94;101995.94;5125994;27;20222;-54
2022/04/14 07:06:08;;;;;;;32.05;23.08;;;;;;;10.83;98.70;102002.81;5099003;28;20472;-51
2022/04/14 07:08:33;;;;;;;33.38;22.90;;;;;;;10.89;97.79;102004.50;5098563;28;20031;-53
2022/04/14 07:11:00;;;;;;;31.63;22.65;;;;;;;10.97;96.30;102002.25;5105020;27;20034;-52
2022/04/14 07:13:26;;;;;;;32.40;23.75;;;;;;;11.07;96.29;102007.78;5116857;27;20027;-53
2022/04/14 07:15:51;;;;;;;32.30;22.17;;;;;;;11.14;95.20;102008.31;5120296;27;20895;-53
2022/04/14 07:18:16;;;;;;;30.10;21.65;;;;;;;11.23;94.76;102008.56;5129270;27;20030;-54
2022/04/14 07:20:42;;;;;;;31.35;22.85;;;;;;;11.34;94.45;102017.66;5133205;27;20041;-53
2022/04/14 07:23:07;;;;;;;29.92;21.63;;;;;;;11.41;93.96;102018.19;5118976;27;20173;-53
2022/04/14 07:25:35;;;;;;;30.55;21.08;;;;;;;11.49;93.64;102014.81;5105204;28;20083;-54
2022/04/14 07:28:01;;;;;;;28.85;20.67;;;;;;;11.57;92.43;102013.41;5122171;27;20036;-54
2022/04/14 07:30:26;;;;;;;31.17;20.88;;;;;;;11.61;92.22;102017.28;5116909;27;20034;-54
2022/04/14 07:32:54;;;;;;;28.98;20.98;;;;;;;11.65;91.92;102012.00;5115991;27;20043;-53
2022/04/14 07:35:25;;;;;;;30.05;21.60;;;;;;;11.80;91.62;102025.75;5115905;27;20054;-54
2022/04/14 07:37:51;;;;;;;29.67;20.77;;;;;;;11.84;91.27;102015.78;5119778;27;20082;-52
2022/04/14 07:40:17;;;;;;;29.17;21.60;;;;;;;11.95;90.90;102018.47;5121285;27;20137;-53
2022/04/14 07:42:44;;;;;;;29.98;22.02;;;;;;;12.04;90.62;102027.03;5124152;27;20546;-54
2022/04/14 07:45:11;;;;;;;28.80;21.15;;;;;;;12.11;90.05;102024.78;5115105;27;20399;-53
2022/04/14 07:47:37;;;;;;;28.65;20.52;;;;;;;12.16;88.91;102030.28;5119751;27;20038;-52
2022/04/14 07:50:03;;;;;;;28.50;20.23;;;;;;;12.17;88.74;102027.22;5133584;27;20038;-52
2022/04/14 07:52:28;;;;;;;27.58;20.52;;;;;;;12.25;88.37;102028.56;5116658;27;20035;-51
2022/04/14 07:54:54;;;;;;;29.85;20.98;;;;;;;12.30;88.50;102030.47;5119807;27;20023;-52
2022/04/14 07:57:19;;;;;;;28.52;19.38;;;;;;;12.38;88.30;102032.63;5114274;27;20394;-52
2022/04/14 07:59:44;;;;;;;27.80;18.63;;;;;;;12.45;88.41;102030.34;5123923;27;20023;-51
2022/04/14 08:02:10;;;;;;;27.60;19.42;;;;;;;12.53;87.29;102039.16;5119719;27;20115;-53
2022/04/14 08:04:35;;;;;;;26.55;18.80;;;;;;;12.60;86.91;102039.69;5119167;27;20016;-53
2022/04/14 08:07:00;;;;;;;26.02;17.08;;;;;;;12.74;85.44;102037.06;5119768;27;20054;-54
2022/04/14 08:09:26;;;;;;;24.75;16.15;;;;;;;12.81;82.87;102029.22;5132594;27;20091;-53
2022/04/14 08:11:51;;;;;;;25.92;17.50;;;;;;;12.87;82.90;102039.13;5129019;27;20036;-53
2022/04/14 08:14:16;;;;;;;24.52;16.05;;;;;;;12.93;82.52;102034.38;5127596;27;20029;-53
2022/04/14 08:16:42;;;;;;;24.13;15.75;;;;;;;13.02;82.98;102037.34;5112707;27;20023;-51
2022/04/14 08:19:07;;;;;;;23.20;15.43;;;;;;;13.10;80.76;102033.91;5120034;27;20046;-58
2022/04/14 08:21:32;;;;;;;25.55;17.58;;;;;;;13.15;81.08;102031.06;5132567;27;20023;-54
2022/04/14 08:23:58;;;;;;;24.85;15.68;;;;;;;13.23;79.87;102035.97;5122662;27;20038;-52
2022/04/14 08:26:25;;;;;;;25.73;16.30;;;;;;;13.31;79.54;102033.69;5118377;27;20051;-54
2022/04/14 08:28:53;;;;;;;24.38;15.80;;;;;;;13.36;78.58;102030.84;5119933;27;20046;-53
2022/04/14 08:31:21;;;;;;;24.58;15.10;;;;;;;13.37;78.57;102027.75;5124704;27;20027;-53
2022/04/14 08:33:48;;;;;;;23.40;15.40;;;;;;;13.46;77.79;102035.50;5132328;27;20030;-54
2022/04/14 08:36:15;;;;;;;24.33;15.43;;;;;;;13.59;77.50;102043.09;5132824;27;20052;-53
2022/04/14 08:38:43;;;;;;;22.45;14.98;;;;;;;13.65;76.65;102038.31;5114225;27;20024;-54
2022/04/14 08:41:08;;;;;;;23.23;14.75;;;;;;;13.72;76.60;102041.53;5113963;28;20028;-54
2022/04/14 08:43:35;;;;;;;22.35;14.88;;;;;;;13.79;76.39;102036.44;5112870;28;20027;-54
2022/04/14 08:46:03;;;;;;;22.92;14.63;;;;;;;13.88;75.89;102034.66;5112244;28;20019;-54
2022/04/14 08:48:28;;;;;;;22.65;14.38;;;;;;;14.03;76.04;102030.81;5113244;28;20436;-54
2022/04/14 08:50:54;;;;;;;21.50;13.77;;;;;;;14.12;75.02;102030.97;5113156;28;20077;-54
2022/04/14 08:53:24;;;;;;;22.73;14.43;;;;;;;14.22;74.80;102029.97;5113653;28;20051;-53
2022/04/14 08:55:50;;;;;;;22.98;14.65;;;;;;;14.27;74.27;102024.34;5113733;28;20433;-54
2022/04/14 08:58:19;;;;;;;23.02;14.75;;;;;;;14.26;73.25;102025.47;5113444;28;20035;-54
2022/04/14 09:00:45;;;;;;;23.92;14.65;;;;;;;14.40;73.57;102033.06;5113755;28;20023;-53
2022/04/14 09:03:15;;;;;;;23.50;14.18;;;;;;;14.51;73.76;102023.38;5095372;28;20364;-51
2022/04/14 09:05:42;;;;;;;24.02;15.27;;;;;;;14.59;73.01;102025.50;5113341;28;20016;-53
2022/04/14 09:08:07;;;;;;;24.25;15.57;;;;;;;14.64;72.62;102022.63;5113338;28;20019;-53
2022/04/14 09:10:35;;;;;;;26.02;16.75;;;;;;;14.70;73.57;102012.25;5113446;28;20024;-53
2022/04/14 09:13:00;;;;;;;24.55;16.15;;;;;;;14.84;73.33;102025.34;5113250;28;20051;-52
2022/04/14 09:15:27;;;;;;;23.60;16.38;;;;;;;14.92;72.24;102024.69;5113308;28;20085;-53
2022/04/14 09:17:53;;;;;;;24.10;16.10;;;;;;;15.00;71.50;102018.38;5113243;28;20020;-53
2022/04/14 09:20:34;;;;;;;23.38;15.32;;;;;;;15.08;72.40;102014.88;5113500;28;20031;-53
2022/04/14 09:23:18;;;;;;;24.60;17.38;;;;;;;15.17;72.55;102017.75;5113304;28;20075;-53
2022/04/14 09:25:43;;;;;;;;;;;;;;;15.28;73.95;102016.44;5113241;28;20123;-52
2022/04/14 09:28:17;;;;;;;24.55;15.98;;;;;;;15.38;71.07;102012.63;5113097;28;20397;-53
2022/04/14 09:31:04;;;;;;;24.25;16.33;;;;;;;15.41;71.53;102000.00;5113190;28;20046;-53
2022/04/14 09:33:44;;;;;;;24.30;16.80;;;;;;;15.51;69.97;102013.75;5113189;28;20054;-54
2022/04/14 09:36:18;;;;;;;25.08;15.35;;;;;;;15.63;69.13;102009.59;5113247;28;20055;-53
2022/04/14 09:39:01;;;;;;;24.40;15.13;;;;;;;15.57;67.95;101994.94;5113172;28;20080;-53
2022/04/14 09:41:29;;;;;;;22.17;14.50;;;;;;;15.61;66.23;101993.16;5094744;28;20019;-52
2022/04/14 09:44:00;;;;;;;21.95;13.55;;;;;;;15.73;65.09;102004.63;5112771;28;20094;-52
2022/04/14 09:46:26;;;;;;;21.45;14.02;;;;;;;15.77;65.41;101995.63;5112711;28;20028;-52
2022/04/14 09:49:14;;;;;;;22.15;13.00;;;;;;;15.87;64.89;101989.84;5113169;28;20070;-53
2022/04/14 09:51:44;;;;;;;26.55;16.17;;;;;;;15.93;66.36;101987.75;5112933;28;20057;-54
2022/04/14 09:54:17;;;;;;;22.75;14.10;;;;;;;16.10;64.57;101989.84;5112738;28;20027;-53
2022/04/14 09:56:51;;;;;;;24.88;14.75;;;;;;;16.19;64.19;101983.22;5112874;28;20147;-52
2022/04/14 09:59:17;;;;;;;;;;;;;;;16.34;66.61;101981.97;5113365;28;20027;-52
2022/04/14 10:01:44;;;;;;;20.63;12.80;;;;;;;16.31;60.82;101982.63;5133134;28;19911;-52
2022/04/14 10:04:33;;;;;;;21.25;12.85;;;;;;;16.40;64.15;101982.69;5119202;28;20437;-53
2022/04/14 10:07:09;;;;;;;20.17;12.82;;;;;;;16.45;62.06;101979.78;5112793;28;20056;-53
2022/04/14 10:09:38;;;;;;;20.58;13.35;;;;;;;16.56;61.37;101985.09;5112663;28;20024;-53
2022/04/14 10:12:04;;;;;;;19.75;11.65;;;;;;;16.68;59.80;101986.16;5113120;28;20032;-53
2022/04/14 10:14:30;;;;;;;20.08;11.68;;;;;;;16.75;58.04;101979.28;5112708;28;20114;-53
2022/04/14 10:16:57;;;;;;;18.80;11.20;;;;;;;16.76;56.72;101992.94;5112593;28;20066;-53
2022/04/14 10:19:23;;;;;;;19.30;10.93;;;;;;;16.77;56.96;102000.16;5114887;28;20111;-53
2022/04/14 10:21:49;;;;;;;19.35;10.52;;;;;;;16.87;56.16;102003.81;5123212;27;20052;-54
2022/04/14 10:24:15;;;;;;;19.98;9.73;;;;;;;16.97;55.16;101997.97;5137011;27;20023;-54
2022/04/14 10:26:43;;;;;;;20.45;10.52;;;;;;;16.98;55.50;101997.69;5136809;27;20122;-53
2022/04/14 10:29:12;;;;;;;20.23;10.45;;;;;;;17.15;55.30;102012.88;5137153;27;20562;-54
2022/04/14 10:31:38;;;;;;;20.13;11.85;;;;;;;17.22;55.52;102012.41;5136697;27;20463;-53
2022/04/14 10:34:04;;;;;;;18.85;10.60;;;;;;;17.24;54.67;102005.34;5134971;27;20106;-53
2022/04/14 10:36:39;;;;;;;16.88;9.55;;;;;;;17.29;53.85;102001.56;5134732;27;20070;-53
2022/04/14 10:39:05;;;;;;;16.50;9.63;;;;;;;17.41;53.35;102021.34;5117384;27;20053;-53
2022/04/14 10:41:34;;;;;;;18.42;9.75;;;;;;;17.40;53.01;102010.47;5129952;27;20542;-53
2022/04/14 10:44:02;;;;;;;17.67;9.13;;;;;;;17.54;52.45;102024.34;5128785;27;20084;-52
2022/04/14 10:46:32;;;;;;;13.20;8.45;;;;;;;17.49;51.46;102016.91;5115283;28;20032;-53
2022/04/14 10:49:22;;;;;;;15.07;8.38;;;;;;;17.45;51.61;102024.31;5122923;27;20119;-53
2022/04/14 10:51:47;;;;;;;15.18;8.30;;;;;;;17.55;51.14;102021.22;5115999;27;20066;-53
2022/04/14 10:54:15;;;;;;;15.25;8.70;;;;;;;17.76;51.79;102021.44;5125256;27;20059;-54
2022/04/14 10:56:40;;;;;;;15.57;8.68;;;;;;;17.89;50.17;102016.03;5129872;27;20019;-54
2022/04/14 10:59:11;;;;;;;14.77;8.47;;;;;;;17.96;50.13;102016.38;5120981;27;20076;-53
2022/04/14 11:01:45;;;;;;;13.43;8.27;;;;;;;18.15;49.92;102010.44;5128701;27;20264;-54
2022/04/14 11:04:35;;;;;;;15.05;8.27;;;;;;;18.38;50.37;102010.28;5123833;27;20030;-53
2022/04/14 11:07:18;;;;;;;14.63;8.15;;;;;;;18.47;51.40;101990.63;5124431;27;20444;-53